Time;durP1;ratioP1;P1;durP2;ratioP2;P2;SDS_P1;SDS_P2;PMS_P1;PMS_P2;Temp;Humidity;BMP_temperature;BMP_pressure;BME280_temperature;BME280_humidity;BME280_pressure;Samples;Min_cycle;Max_cycle;Signal;HPM_P1;HPM_P2
2022/12/06 00:01:24;;;;;;;16.48;7.80;;;;;;;9.18;59.68;99923.97;4396622;32;20653;-87
2022/12/06 00:03:54;;;;;;;26.33;8.80;;;;;;;9.14;59.69;99927.53;4389086;32;20144;-87
2022/12/06 00:06:21;;;;;;;18.08;8.77;;;;;;;9.18;59.68;99930.91;4396362;32;20066;-87
2022/12/06 00:08:47;;;;;;;15.80;8.00;;;;;;;9.20;59.69;99934.31;4399343;32;20106;-87
2022/12/06 00:11:18;;;;;;;16.90;8.95;;;;;;;9.18;59.68;99929.16;4383766;32;20144;-88
2022/12/06 00:13:43;;;;;;;16.48;7.78;;;;;;;9.19;59.69;99933.47;4415682;32;20109;-87
2022/12/06 00:16:10;;;;;;;15.60;8.15;;;;;;;9.19;59.68;99930.00;4398675;32;20133;-87
2022/12/06 00:18:36;;;;;;;16.90;7.68;;;;;;;9.32;59.69;99920.22;4396511;32;20140;-87
2022/12/06 00:21:13;;;;;;;19.23;8.57;;;;;;;9.06;59.68;99911.28;4410166;32;20379;-87
2022/12/06 00:23:39;;;;;;;16.70;7.97;;;;;;;9.13;59.69;99883.44;4399169;32;20171;-86
2022/12/06 00:26:05;;;;;;;18.83;9.57;;;;;;;9.05;59.68;99878.44;4399060;32;20129;-87
2022/12/06 00:28:30;;;;;;;16.50;8.60;;;;;;;8.93;59.67;99886.47;4383859;32;20128;-87
2022/12/06 00:30:57;;;;;;;19.75;9.13;;;;;;;8.95;59.67;99882.09;4407553;32;20114;-88
2022/12/06 00:33:23;;;;;;;17.45;8.77;;;;;;;8.91;59.68;99891.72;4387958;32;20694;-87
2022/12/06 00:35:59;;;;;;;17.50;7.80;;;;;;;8.84;59.67;99887.56;4406620;32;24847;-86
2022/12/06 00:38:25;;;;;;;20.23;8.57;;;;;;;8.73;59.65;99879.16;4389880;32;20104;-86
2022/12/06 00:40:57;;;;;;;15.77;7.90;;;;;;;8.71;59.66;99875.72;4395763;32;20075;-86
2022/12/06 00:43:23;;;;;;;17.08;8.32;;;;;;;8.73;59.66;99876.56;4396128;32;20132;-87
2022/12/06 00:45:48;;;;;;;20.25;7.78;;;;;;;8.60;59.66;99888.09;4414924;32;25740;-85
2022/12/06 00:48:13;;;;;;;16.48;7.87;;;;;;;8.67;59.66;99875.84;4407293;32;25724;-86
2022/12/06 00:50:39;;;;;;;19.77;8.23;;;;;;;8.48;59.65;99871.03;4396351;32;36257;-85
2022/12/06 00:53:04;;;;;;;19.15;7.15;;;;;;;8.49;59.65;99869.31;4413572;32;20435;-85
2022/12/06 00:55:30;;;;;;;15.80;8.00;;;;;;;8.41;59.65;99866.88;4403339;32;20090;-86
2022/12/06 00:57:55;;;;;;;21.42;7.65;;;;;;;8.49;59.65;99857.19;4400955;32;20094;-86
2022/12/06 01:00:20;;;;;;;15.27;7.07;;;;;;;8.52;59.66;99861.50;4395977;32;33397;-85
2022/12/06 01:02:46;;;;;;;15.13;7.10;;;;;;;8.54;59.65;99864.91;4412559;32;20488;-86
2022/12/06 01:05:11;;;;;;;20.65;8.13;;;;;;;8.57;59.65;99844.91;4397934;32;31721;-86
2022/12/06 01:07:37;;;;;;;15.40;7.18;;;;;;;8.54;59.65;99851.94;4407214;32;26883;-84
2022/12/06 01:10:02;;;;;;;14.70;7.37;;;;;;;8.61;59.66;99846.56;4405897;32;34451;-85
2022/12/06 01:12:27;;;;;;;19.90;8.30;;;;;;;8.65;59.66;99843.88;4407397;32;20082;-84
2022/12/06 01:14:53;;;;;;;18.50;8.73;;;;;;;8.57;59.65;99831.09;4399051;32;34450;-85
2022/12/06 01:17:18;;;;;;;19.40;8.60;;;;;;;8.63;59.66;99825.75;4410226;32;20106;-84
2022/12/06 01:19:44;;;;;;;20.58;9.13;;;;;;;8.45;59.65;99815.78;4382120;32;34941;-85
2022/12/06 01:22:09;;;;;;;22.25;8.93;;;;;;;8.37;59.65;99810.78;4400472;32;20153;-85
2022/12/06 01:24:34;;;;;;;24.65;10.63;;;;;;;8.42;59.64;99793.38;4395211;32;20137;-84
2022/12/06 01:27:00;;;;;;;23.15;9.85;;;;;;;8.28;59.63;99793.66;4397105;32;20149;-87
2022/12/06 01:29:25;;;;;;;23.33;10.32;;;;;;;8.19;59.63;99785.22;4398615;32;20125;-86
2022/12/06 01:31:50;;;;;;;20.30;9.48;;;;;;;8.15;59.64;99783.56;4397482;32;31690;-87
2022/12/06 01:34:16;;;;;;;21.30;9.15;;;;;;;8.19;59.63;99783.47;4397485;32;28046;-87
2022/12/06 01:36:42;;;;;;;18.77;8.65;;;;;;;8.13;59.63;99781.03;4410851;32;20481;-86
2022/12/06 01:39:09;;;;;;;22.48;8.73;;;;;;;8.26;59.64;99782.44;4393751;32;20145;-87
2022/12/06 01:41:35;;;;;;;18.80;8.50;;;;;;;8.24;59.64;99773.00;4387415;32;20535;-86
2022/12/06 01:44:00;;;;;;;15.73;7.30;;;;;;;8.14;59.64;99774.94;4418971;32;20090;-86
2022/12/06 01:46:40;;;;;;;18.87;8.82;;;;;;;8.09;59.63;99766.41;4410295;32;31858;-87
2022/12/06 01:49:07;;;;;;;18.67;8.20;;;;;;;8.13;59.63;99778.44;4393692;32;20101;-86
2022/12/06 01:51:32;;;;;;;18.67;8.10;;;;;;;8.17;59.63;99790.44;4396336;32;20183;-87
2022/12/06 01:53:58;;;;;;;16.00;8.13;;;;;;;8.25;59.64;99817.03;4390162;32;22808;-87
2022/12/06 01:56:23;;;;;;;16.10;7.25;;;;;;;8.53;59.66;99842.44;4412036;32;20141;-86
2022/12/06 01:58:49;;;;;;;16.35;8.13;;;;;;;8.70;59.66;99865.38;4404567;32;31005;-87
2022/12/06 02:01:15;;;;;;;17.10;8.02;;;;;;;8.72;59.66;99861.00;4412795;32;20128;-87
2022/12/06 02:03:40;;;;;;;14.77;6.87;;;;;;;8.70;59.66;99849.81;4386602;32;20122;-87
2022/12/06 02:06:06;;;;;;;16.52;7.28;;;;;;;8.66;59.67;99838.66;4406724;32;20113;-87
2022/12/06 02:08:32;;;;;;;14.25;6.97;;;;;;;8.74;59.66;99825.50;4383036;32;20117;-87
2022/12/06 02:10:58;;;;;;;17.98;7.05;;;;;;;8.78;59.67;99821.97;4395730;32;20373;-87
2022/12/06 02:13:23;;;;;;;14.32;6.57;;;;;;;8.57;59.65;99844.06;4397420;32;20094;-86
2022/12/06 02:15:57;;;;;;;15.40;7.35;;;;;;;8.73;59.66;99848.00;4406100;32;20094;-86
2022/12/06 02:18:59;;;;;;;17.33;7.30;;;;;;;8.70;59.66;99852.41;4416887;32;20120;-87
2022/12/06 02:21:34;;;;;;;17.35;7.87;;;;;;;8.74;59.67;99854.91;4377185;32;20106;-87
2022/12/06 02:24:24;;;;;;;15.40;7.87;;;;;;;8.78;59.67;99853.97;4403862;32;20454;-86
2022/12/06 02:26:50;;;;;;;15.88;7.85;;;;;;;8.81;59.66;99855.63;4403463;32;20085;-87
2022/12/06 02:29:44;;;;;;;18.33;8.45;;;;;;;8.77;59.67;99852.25;4394567;32;20110;-85
2022/12/06 02:32:14;;;;;;;17.05;7.68;;;;;;;8.77;59.66;99854.84;4399515;32;20129;-86
2022/12/06 02:34:43;;;;;;;17.23;8.00;;;;;;;8.90;59.68;99873.56;4396993;32;20098;-88
2022/12/06 02:37:09;;;;;;;18.25;8.13;;;;;;;9.12;59.69;99885.16;4406844;32;20090;-87
2022/12/06 02:39:45;;;;;;;24.00;8.90;;;;;;;9.03;59.68;99871.56;4386656;32;20125;-87
2022/12/06 02:42:32;;;;;;;16.35;7.80;;;;;;;9.16;59.69;99844.41;4395332;32;20170;-87
2022/12/06 02:45:01;;;;;;;16.05;8.13;;;;;;;8.95;59.67;99822.41;4399282;32;20116;-86
2022/12/06 02:47:30;;;;;;;19.87;8.13;;;;;;;9.00;59.68;99811.94;4391700;32;20101;-86
2022/12/06 02:49:56;;;;;;;12.27;6.93;;;;;;;8.82;59.67;99806.28;4394844;32;20507;-86
2022/12/06 02:52:23;;;;;;;15.20;6.62;;;;;;;8.78;59.67;99806.41;4387282;32;28842;-87
2022/12/06 02:54:48;;;;;;;15.75;8.13;;;;;;;8.66;59.65;99806.66;4395547;32;20124;-86
2022/12/06 02:57:14;;;;;;;16.70;7.60;;;;;;;8.60;59.66;99808.53;4386227;32;20098;-87
2022/12/06 02:59:49;;;;;;;17.35;8.02;;;;;;;8.73;59.65;99793.50;4405580;32;20160;-85
2022/12/06 03:02:15;;;;;;;15.52;8.45;;;;;;;8.65;59.66;99769.50;4388524;32;20143;-86
2022/12/06 03:05:05;;;;;;;27.20;7.78;;;;;;;8.62;59.66;99766.97;4394294;32;22744;-87
2022/12/06 03:07:38;;;;;;;14.68;7.40;;;;;;;8.67;59.66;99765.13;4394907;32;20467;-87
2022/12/06 03:10:23;;;;;;;16.98;8.18;;;;;;;8.70;59.66;99746.88;4387972;32;20187;-86
2022/12/06 03:13:06;;;;;;;13.88;7.93;;;;;;;8.59;59.66;99741.97;4408641;32;20120;-86
2022/12/06 03:15:36;;;;;;;20.08;8.27;;;;;;;8.53;59.65;99743.84;4395508;32;20098;-86
2022/12/06 03:18:10;;;;;;;20.40;7.78;;;;;;;8.34;59.64;99738.25;4410145;32;20108;-86
2022/12/06 03:20:44;;;;;;;12.98;6.65;;;;;;;8.18;59.63;99753.25;4391501;32;20132;-86
2022/12/06 03:23:22;;;;;;;19.27;7.85;;;;;;;8.32;59.64;99738.25;4410992;32;20228;-87
2022/12/06 03:25:48;;;;;;;16.27;7.40;;;;;;;8.27;59.64;99728.84;4407809;32;20082;-85
2022/12/06 03:28:13;;;;;;;14.10;7.50;;;;;;;8.14;59.64;99723.09;4397367;32;25504;-86
2022/12/06 03:30:39;;;;;;;17.55;7.30;;;;;;;7.98;59.62;99739.88;4406747;32;20133;-85
2022/12/06 03:33:05;;;;;;;18.00;7.78;;;;;;;7.91;59.61;99736.56;4408548;32;20438;-86
2022/12/06 03:35:31;;;;;;;17.42;6.95;;;;;;;8.06;59.62;99742.31;4395730;32;23947;-86
2022/12/06 03:38:05;;;;;;;17.40;7.55;;;;;;;7.88;59.62;99738.38;4392734;32;20107;-86
2022/12/06 03:40:32;;;;;;;17.87;8.55;;;;;;;8.06;59.63;99729.34;4375080;32;20124;-87
2022/12/06 03:42:58;;;;;;;16.85;7.22;;;;;;;8.04;59.62;99721.56;4394244;32;20101;-85
2022/12/06 03:45:29;;;;;;;20.75;8.10;;;;;;;7.95;59.62;99721.78;4390435;32;20062;-87
2022/12/06 03:47:56;;;;;;;;;;;;;;;7.85;59.62;99720.28;4394430;32;20457;-86
2022/12/06 03:50:31;;;;;;;18.98;8.10;;;;;;;7.88;59.62;99720.22;4403306;32;19993;-85
2022/12/06 03:52:56;;;;;;;18.05;8.02;;;;;;;7.91;59.61;99722.75;4409261;32;20098;-85
2022/12/06 03:55:22;;;;;;;19.27;8.68;;;;;;;7.81;59.61;99719.50;4394524;32;20122;-87
2022/12/06 03:57:47;;;;;;;16.90;7.97;;;;;;;7.84;59.62;99714.25;4376286;32;20460;-85
2022/12/06 04:00:15;;;;;;;16.73;8.75;;;;;;;7.87;59.62;99715.94;4418596;32;20129;-86
2022/12/06 04:02:40;;;;;;;19.40;8.07;;;;;;;7.80;59.61;99715.19;4381204;32;20177;-85
2022/12/06 04:05:05;;;;;;;16.75;8.23;;;;;;;7.89;59.62;99722.78;4405357;32;36491;-86
2022/12/06 04:07:31;;;;;;;18.40;8.48;;;;;;;7.86;59.62;99742.72;4385306;32;20463;-86
2022/12/06 04:10:01;;;;;;;19.62;7.72;;;;;;;7.97;59.62;99762.34;4394686;32;29131;-86
2022/12/06 04:15:17;;;;;;;17.20;8.35;;;;;;;7.95;59.62;99784.00;4406132;32;20112;-85
2022/12/06 04:20:27;;;;;;;15.80;7.93;;;;;;;7.84;59.62;99801.53;4406609;32;20124;-86
2022/12/06 04:23:02;;;;;;;18.60;7.82;;;;;;;7.81;59.61;99797.25;4405283;32;20439;-85
2022/12/06 04:25:28;;;;;;;17.40;7.75;;;;;;;7.77;59.62;99799.91;4403813;32;20887;-85
2022/12/06 04:38:49;;;;;;;17.80;8.45;;;;;;;8.19;59.63;99788.66;4418946;32;20111;-86
2022/12/06 04:43:40;;;;;;;17.85;8.30;;;;;;;8.24;59.64;99781.63;4428142;32;20154;-86
2022/12/06 04:44:00;;;;;;;20.75;8.50;;;;;;;8.28;59.63;99770.31;4413690;32;20094;-86
2022/12/06 04:46:26;;;;;;;17.30;8.43;;;;;;;8.39;59.65;99772.69;4423911;32;34279;-85
2022/12/06 04:48:51;;;;;;;17.27;8.48;;;;;;;8.39;59.64;99780.47;4410648;32;20116;-85
2022/12/06 04:51:16;;;;;;;15.70;8.10;;;;;;;8.37;59.64;99778.81;4394380;32;20161;-85
2022/12/06 04:53:42;;;;;;;17.20;8.93;;;;;;;8.26;59.64;99777.25;4397916;32;20174;-86
2022/12/06 04:56:07;;;;;;;14.15;7.57;;;;;;;8.48;59.65;99774.22;4397395;32;34327;-85
2022/12/06 04:58:33;;;;;;;14.25;7.22;;;;;;;8.44;59.64;99764.81;4407758;32;20146;-87
2022/12/06 05:00:58;;;;;;;17.77;8.00;;;;;;;8.41;59.65;99759.69;4392511;32;20117;-85
2022/12/06 05:03:24;;;;;;;18.80;8.35;;;;;;;8.36;59.64;99753.75;4398948;32;37743;-87
2022/12/06 05:05:49;;;;;;;18.90;7.93;;;;;;;8.50;59.65;99747.34;4403475;32;20455;-86
2022/12/06 05:08:15;;;;;;;17.90;8.32;;;;;;;8.43;59.64;99753.56;4394089;32;20097;-87
2022/12/06 05:10:40;;;;;;;15.80;8.40;;;;;;;8.52;59.66;99765.50;4397375;32;24982;-86
2022/12/06 05:13:05;;;;;;;14.02;7.55;;;;;;;8.37;59.64;99771.03;4381910;32;34475;-86
2022/12/06 05:15:31;;;;;;;14.90;8.23;;;;;;;8.35;59.64;99759.84;4404387;32;20358;-86
2022/12/06 05:17:56;;;;;;;16.75;8.60;;;;;;;8.31;59.64;99761.62;4382955;32;20130;-86
2022/12/06 05:20:22;;;;;;;14.30;7.72;;;;;;;8.34;59.64;99765.91;4385890;32;32191;-86
2022/12/06 05:22:48;;;;;;;15.63;7.50;;;;;;;8.48;59.65;99769.88;4396010;32;20212;-87
2022/12/06 05:25:15;;;;;;;14.70;7.10;;;;;;;8.60;59.66;99771.34;4396260;32;20110;-85
2022/12/06 05:27:41;;;;;;;15.68;8.23;;;;;;;8.61;59.66;99773.91;4410017;32;20109;-85
2022/12/06 05:30:07;;;;;;;16.75;7.57;;;;;;;8.55;59.65;99760.22;4411515;32;20126;-86
2022/12/06 05:32:32;;;;;;;16.87;8.13;;;;;;;8.66;59.67;99760.81;4404934;32;20093;-85
2022/12/06 05:34:58;;;;;;;19.65;7.82;;;;;;;8.61;59.66;99758.34;4387434;32;20120;-85
2022/12/06 05:37:23;;;;;;;16.85;8.00;;;;;;;8.58;59.65;99762.75;4405453;32;36937;-85
2022/12/06 05:39:48;;;;;;;14.98;7.60;;;;;;;8.72;59.66;99754.63;4407028;32;36326;-84
2022/12/06 05:42:14;;;;;;;17.40;7.60;;;;;;;8.64;59.65;99754.81;4421397;32;37268;-85
2022/12/06 05:44:40;;;;;;;17.55;7.87;;;;;;;8.60;59.66;99755.78;4406279;32;33763;-84
2022/12/06 05:47:05;;;;;;;16.33;8.20;;;;;;;8.59;59.66;99765.31;4402844;32;20413;-85
2022/12/06 05:49:31;;;;;;;15.02;8.02;;;;;;;8.53;59.66;99774.97;4393288;32;20105;-84
2022/12/06 05:51:56;;;;;;;17.58;8.35;;;;;;;8.48;59.64;99777.66;4396304;32;32311;-84
2022/12/06 05:54:21;;;;;;;17.05;9.10;;;;;;;8.42;59.64;99772.63;4413641;32;20392;-84
2022/12/06 05:56:48;;;;;;;17.15;8.45;;;;;;;8.34;59.64;99771.09;4392565;32;38069;-84
2022/12/06 05:59:14;;;;;;;19.65;8.40;;;;;;;8.54;59.65;99763.72;4398855;32;20165;-84
2022/12/06 06:01:39;;;;;;;16.62;7.93;;;;;;;8.61;59.66;99760.09;4411305;32;35477;-84
2022/12/06 06:04:04;;;;;;;18.62;8.70;;;;;;;8.65;59.66;99756.53;4397985;32;25784;-84
2022/12/06 06:06:30;;;;;;;15.23;8.30;;;;;;;8.67;59.66;99757.31;4407188;32;20499;-84
2022/12/06 06:08:55;;;;;;;16.83;9.13;;;;;;;8.66;59.66;99759.97;4385903;32;32433;-84
2022/12/06 06:11:20;;;;;;;13.77;8.15;;;;;;;8.61;59.65;99770.47;4394185;32;20150;-84
2022/12/06 06:13:46;;;;;;;20.80;9.80;;;;;;;8.62;59.66;99759.19;4412573;32;35709;-84
2022/12/06 06:16:11;;;;;;;17.90;9.23;;;;;;;8.69;59.66;99747.75;4395853;32;38945;-85
2022/12/06 06:18:36;;;;;;;21.33;9.68;;;;;;;8.53;59.66;99742.13;4406484;32;23741;-83
2022/12/06 06:21:02;;;;;;;18.98;9.63;;;;;;;8.55;59.65;99735.13;4395549;32;29859;-84
2022/12/06 06:23:28;;;;;;;17.98;9.68;;;;;;;8.61;59.66;99734.97;4401899;32;20136;-84
2022/12/06 06:25:53;;;;;;;18.10;8.43;;;;;;;8.68;59.66;99733.09;4408171;32;20185;-83
2022/12/06 06:28:19;;;;;;;16.70;8.75;;;;;;;8.68;59.66;99743.47;4397520;32;23414;-83
2022/12/06 06:30:44;;;;;;;18.95;8.55;;;;;;;8.63;59.66;99740.13;4393896;32;20125;-84
2022/12/06 06:33:10;;;;;;;18.60;9.23;;;;;;;8.63;59.66;99724.56;4398291;32;20107;-82
2022/12/06 06:35:35;;;;;;;14.73;7.93;;;;;;;8.53;59.66;99718.75;4421445;32;26749;-84
2022/12/06 06:38:01;;;;;;;12.40;6.97;;;;;;;8.58;59.65;99721.25;4407837;32;20141;-85
2022/12/06 06:40:27;;;;;;;11.30;7.10;;;;;;;8.50;59.65;99718.81;4409238;32;20101;-83
2022/12/06 06:42:52;;;;;;;14.27;6.70;;;;;;;8.58;59.65;99724.69;4394466;32;20110;-85
2022/12/06 06:45:18;;;;;;;14.68;7.72;;;;;;;8.63;59.65;99726.31;4388399;32;20101;-86
2022/12/06 06:47:43;;;;;;;10.70;6.65;;;;;;;8.51;59.66;99728.28;4394844;32;20119;-85
2022/12/06 06:50:09;;;;;;;14.57;7.32;;;;;;;8.63;59.66;99732.34;4384259;32;20387;-86
2022/12/06 06:52:34;;;;;;;11.90;6.75;;;;;;;8.46;59.65;99730.16;4382823;32;20217;-85
2022/12/06 06:55:00;;;;;;;12.52;6.60;;;;;;;8.54;59.65;99727.41;4419117;32;37830;-86
2022/12/06 06:57:25;;;;;;;10.50;6.10;;;;;;;8.50;59.65;99725.75;4422737;32;20144;-86
2022/12/06 06:59:50;;;;;;;11.65;6.37;;;;;;;8.37;59.64;99719.16;4391471;32;35861;-85
2022/12/06 07:02:16;;;;;;;9.68;5.15;;;;;;;8.81;59.66;99705.94;4386065;32;20121;-86
2022/12/06 07:04:42;;;;;;;10.68;5.80;;;;;;;8.55;59.65;99697.97;4407805;32;20086;-86
2022/12/06 07:07:07;;;;;;;14.60;6.35;;;;;;;8.50;59.65;99705.84;4407657;32;20160;-85
2022/12/06 07:09:33;;;;;;;10.27;5.15;;;;;;;8.54;59.65;99707.50;4407083;32;34291;-86
2022/12/06 07:11:58;;;;;;;8.50;4.93;;;;;;;8.43;59.64;99706.88;4402258;32;20162;-87
2022/12/06 07:14:24;;;;;;;7.60;4.62;;;;;;;8.35;59.64;99706.22;4408696;32;32672;-86
2022/12/06 07:16:49;;;;;;;8.55;4.97;;;;;;;8.37;59.63;99704.44;4390000;32;20125;-86
2022/12/06 07:19:14;;;;;;;12.68;6.93;;;;;;;8.34;59.64;99704.53;4406044;32;32083;-86
2022/12/06 07:21:40;;;;;;;11.73;5.93;;;;;;;8.37;59.65;99712.22;4385770;32;24456;-85
2022/12/06 07:24:06;;;;;;;10.85;5.43;;;;;;;8.30;59.64;99711.50;4396453;32;20174;-86
2022/12/06 07:26:31;;;;;;;10.73;5.35;;;;;;;8.07;59.63;99718.94;4406806;32;20171;-86
2022/12/06 07:28:56;;;;;;;11.50;5.32;;;;;;;8.31;59.64;99713.19;4403212;32;38517;-87
2022/12/06 07:31:24;;;;;;;20.00;10.65;;;;;;;8.27;59.64;99708.94;4408050;32;29313;-86
2022/12/06 07:33:56;;;;;;;24.75;13.20;;;;;;;8.40;59.65;99709.56;4390645;32;20110;-86
2022/12/06 07:36:22;;;;;;;20.95;11.60;;;;;;;8.40;59.64;99701.78;4406259;32;20128;-86
2022/12/06 07:38:49;;;;;;;19.77;8.85;;;;;;;8.40;59.65;99704.37;4411207;32;20137;-86
2022/12/06 07:46:43;;;;;;;7.97;4.78;;;;;;;8.54;59.65;99717.03;4410583;32;20128;-86
2022/12/06 07:49:09;;;;;;;8.88;4.72;;;;;;;8.34;59.64;99730.47;4389929;32;20359;-86
2022/12/06 07:51:34;;;;;;;7.07;3.72;;;;;;;8.48;59.65;99732.72;4406286;32;20374;-86
2022/12/06 07:53:59;;;;;;;4.62;2.90;;;;;;;8.43;59.64;99727.63;4384990;32;33032;-86
2022/12/06 07:56:25;;;;;;;7.47;3.42;;;;;;;8.31;59.64;99727.91;4397321;32;20117;-86
2022/12/06 07:58:50;;;;;;;7.00;2.35;;;;;;;8.51;59.66;99725.69;4396023;32;20452;-85
2022/12/06 08:01:16;;;;;;;5.15;2.78;;;;;;;8.38;59.65;99726.91;4394101;32;20170;-86
2022/12/06 08:03:41;;;;;;;4.90;2.70;;;;;;;8.27;59.64;99727.09;4409143;32;39787;-86
2022/12/06 08:06:07;;;;;;;4.37;2.85;;;;;;;8.16;59.63;99723.91;4397160;32;34899;-87
2022/12/06 08:08:33;;;;;;;5.70;2.70;;;;;;;8.00;59.63;99731.16;4408166;32;20109;-85
2022/12/06 08:11:02;;;;;;;5.45;2.15;;;;;;;7.87;59.62;99742.69;4411915;32;20115;-86
2022/12/06 08:13:27;;;;;;;4.35;1.77;;;;;;;7.80;59.61;99743.69;4392496;32;20090;-86
2022/12/06 08:15:53;;;;;;;2.20;1.48;;;;;;;7.97;59.62;99751.97;4408648;32;20128;-86
2022/12/06 08:18:18;;;;;;;4.47;1.62;;;;;;;7.83;59.60;99754.03;4402977;32;20354;-86
2022/12/06 08:20:44;;;;;;;2.45;1.33;;;;;;;7.81;59.61;99755.78;4417829;32;20494;-86
2022/12/06 08:23:09;;;;;;;4.28;1.33;;;;;;;7.67;59.60;99747.44;4388706;32;20141;-86
2022/12/06 08:25:35;;;;;;;4.15;1.37;;;;;;;7.77;59.62;99742.91;4408245;32;20106;-86
2022/12/06 08:28:00;;;;;;;2.55;1.23;;;;;;;7.62;59.61;99744.09;4407998;32;20479;-86
2022/12/06 08:30:25;;;;;;;3.80;1.12;;;;;;;7.76;59.61;99741.19;4423300;32;20152;-87
2022/12/06 08:32:51;;;;;;;1.17;0.90;;;;;;;7.68;59.60;99749.13;4407995;32;20082;-86
2022/12/06 08:35:16;;;;;;;2.65;1.25;;;;;;;7.64;59.60;99745.75;4415600;32;26386;-86
2022/12/06 08:37:41;;;;;;;3.12;1.73;;;;;;;7.54;59.59;99744.22;4397306;32;33184;-86
2022/12/06 08:40:07;;;;;;;2.62;1.23;;;;;;;7.56;59.60;99746.78;4397490;32;26935;-87
2022/12/06 08:42:33;;;;;;;4.20;1.90;;;;;;;7.58;59.60;99743.31;4395776;32;20102;-87
2022/12/06 08:44:58;;;;;;;2.30;1.30;;;;;;;7.57;59.60;99751.97;4397672;32;20113;-86
2022/12/06 08:47:23;;;;;;;2.95;1.67;;;;;;;7.58;59.60;99747.63;4385840;32;20171;-87
2022/12/06 08:49:49;;;;;;;2.45;1.58;;;;;;;7.61;59.60;99755.34;4397534;32;20420;-87
2022/12/06 08:52:15;;;;;;;3.37;1.70;;;;;;;7.54;59.59;99762.34;4382922;32;20110;-87
2022/12/06 08:54:40;;;;;;;2.85;1.62;;;;;;;7.37;59.59;99764.44;4404733;32;20121;-86
2022/12/06 08:57:05;;;;;;;2.10;1.25;;;;;;;7.54;59.60;99761.50;4397611;32;24951;-87
2022/12/06 08:59:31;;;;;;;2.53;1.50;;;;;;;7.55;59.60;99758.03;4402725;32;20168;-86
2022/12/06 09:01:56;;;;;;;4.47;2.37;;;;;;;7.41;59.60;99757.47;4409556;32;20128;-87
2022/12/06 09:04:22;;;;;;;5.43;2.78;;;;;;;7.56;59.60;99755.41;4407533;32;20159;-87
2022/12/06 09:06:47;;;;;;;4.25;2.60;;;;;;;7.60;59.60;99748.44;4395650;32;20430;-87
2022/12/06 09:09:14;;;;;;;3.92;2.17;;;;;;;7.78;59.61;99742.87;4410901;32;20352;-87
2022/12/06 09:11:40;;;;;;;4.32;2.30;;;;;;;7.86;59.62;99742.72;4395047;32;20144;-87
2022/12/06 09:14:07;;;;;;;3.83;1.95;;;;;;;8.02;59.63;99736.31;4409982;32;20106;-87
2022/12/06 09:16:33;;;;;;;5.20;1.87;;;;;;;8.33;59.64;99736.50;4400186;32;20089;-87
2022/12/06 09:18:58;;;;;;;2.90;1.80;;;;;;;8.45;59.65;99741.41;4408937;32;20145;-86
2022/12/06 09:21:28;;;;;;;3.15;1.55;;;;;;;8.43;59.64;99740.59;4418725;32;20157;-85
2022/12/06 09:23:54;;;;;;;2.10;1.50;;;;;;;8.36;59.64;99738.19;4395771;32;20093;-87
2022/12/06 09:26:20;;;;;;;2.58;1.42;;;;;;;8.56;59.65;99741.19;4399998;32;20110;-87
2022/12/06 09:28:48;;;;;;;5.15;1.85;;;;;;;8.59;59.66;99741.97;4404128;32;22543;-87
2022/12/06 09:31:14;;;;;;;2.62;1.58;;;;;;;8.46;59.65;99743.13;4408182;32;20098;-87
2022/12/06 09:33:39;;;;;;;1.95;1.50;;;;;;;8.49;59.65;99742.19;4423451;32;20067;-86
2022/12/06 09:36:09;;;;;;;2.50;1.12;;;;;;;8.37;59.64;99755.47;4423341;32;20129;-86
2022/12/06 09:38:35;;;;;;;2.83;1.08;;;;;;;8.49;59.65;99750.81;4406662;32;20078;-87
2022/12/06 09:41:09;;;;;;;3.30;1.10;;;;;;;8.69;59.66;99752.09;4396269;32;20454;-87
2022/12/06 09:44:05;;;;;;;2.20;1.33;;;;;;;8.58;59.65;99750.63;4410777;32;20097;-87
2022/12/06 09:46:50;;;;;;;2.12;1.27;;;;;;;8.45;59.65;99743.16;4408146;32;20094;-87
2022/12/06 09:49:30;;;;;;;2.45;1.10;;;;;;;8.49;59.64;99742.19;4400997;32;20092;-87
2022/12/06 09:52:01;;;;;;;1.70;1.17;;;;;;;8.37;59.64;99737.31;4388780;32;20102;-87
2022/12/06 09:54:41;;;;;;;2.47;1.05;;;;;;;8.28;59.63;99746.97;4408552;32;20071;-87
2022/12/06 09:57:27;;;;;;;1.05;0.50;;;;;;;8.45;59.65;99744.00;4410925;32;20098;-88
2022/12/06 10:00:05;;;;;;;0.62;0.43;;;;;;;8.37;59.64;99734.72;4373550;32;20145;-88
2022/12/06 10:02:37;;;;;;;0.68;0.57;;;;;;;8.21;59.63;99728.97;4417497;32;20111;-87
2022/12/06 10:05:20;;;;;;;1.05;0.62;;;;;;;8.39;59.65;99733.78;4422547;32;20435;-87
2022/12/06 10:08:02;;;;;;;1.15;0.52;;;;;;;8.28;59.63;99731.44;4409548;32;20180;-87
2022/12/06 10:10:33;;;;;;;0.90;0.60;;;;;;;8.32;59.64;99721.81;4410021;32;20082;-88
2022/12/06 10:13:09;;;;;;;1.80;0.70;;;;;;;8.32;59.64;99722.69;4410859;32;20089;-87
2022/12/06 10:16:05;;;;;;;6.65;1.05;;;;;;;8.39;59.65;99719.97;4398557;32;20467;-87
2022/12/06 10:18:41;;;;;;;1.75;0.60;;;;;;;8.49;59.64;99722.28;4424739;32;20174;-87
2022/12/06 10:21:12;;;;;;;1.42;0.70;;;;;;;8.31;59.64;99720.13;4410652;32;20809;-87
2022/12/06 10:23:46;;;;;;;2.22;0.80;;;;;;;8.52;59.66;99709.28;4409968;32;20061;-88
2022/12/06 10:26:16;;;;;;;1.42;0.85;;;;;;;8.70;59.66;99689.78;4410531;32;20734;-87
2022/12/06 10:28:46;;;;;;;2.08;1.00;;;;;;;8.79;59.66;99694.75;4392118;32;20170;-89
2022/12/06 10:31:27;;;;;;;4.93;1.37;;;;;;;8.83;59.67;99693.78;4407979;32;20126;-87
2022/12/06 10:33:54;;;;;;;3.30;0.93;;;;;;;8.92;59.68;99695.28;4391885;32;20086;-87
2022/12/06 10:36:41;;;;;;;1.40;1.00;;;;;;;9.01;59.67;99684.66;4397954;32;20136;-87
2022/12/06 10:39:21;;;;;;;1.83;0.88;;;;;;;9.13;59.68;99684.31;4395538;32;20140;-89
2022/12/06 10:41:53;;;;;;;1.85;1.33;;;;;;;9.09;59.68;99693.09;4388412;32;20090;-86
2022/12/06 10:44:19;;;;;;;2.20;1.25;;;;;;;9.18;59.68;99679.00;4395312;32;20078;-88
2022/12/06 10:47:05;;;;;;;3.47;1.23;;;;;;;9.17;59.68;99682.50;4397348;32;20102;-88
2022/12/06 10:49:49;;;;;;;2.83;1.40;;;;;;;9.22;59.69;99688.41;4416651;32;20109;-87
2022/12/06 10:52:41;;;;;;;2.05;1.08;;;;;;;9.23;59.69;99682.34;4390461;32;20094;-87
2022/12/06 10:55:44;;;;;;;2.10;1.37;;;;;;;9.07;59.68;99691.44;4408087;32;20148;-88
2022/12/06 10:58:40;;;;;;;2.30;1.48;;;;;;;8.99;59.68;99673.47;4359116;32;20796;-88
2022/12/06 11:01:09;;;;;;;4.50;1.40;;;;;;;8.99;59.68;99678.66;4420586;32;20073;-88
2022/12/06 11:03:45;;;;;;;2.33;1.62;;;;;;;9.04;59.67;99674.19;4383087;32;20494;-87
2022/12/06 11:06:17;;;;;;;3.35;1.42;;;;;;;9.06;59.68;99676.75;4407632;32;20132;-88
2022/12/06 11:08:50;;;;;;;2.47;1.60;;;;;;;9.22;59.69;99671.06;4397666;32;20102;-88
2022/12/06 11:11:23;;;;;;;1.33;1.15;;;;;;;9.39;59.70;99673.22;4395416;32;20074;-88
2022/12/06 11:13:55;;;;;;;3.20;1.58;;;;;;;9.42;59.71;99657.53;4404012;32;20115;-87
2022/12/06 11:16:20;;;;;;;2.28;1.33;;;;;;;9.27;59.70;99664.94;4382968;32;20118;-88
2022/12/06 11:18:46;;;;;;;1.37;0.93;;;;;;;9.31;59.69;99659.59;4418060;32;20435;-88
2022/12/06 11:21:32;;;;;;;1.70;1.05;;;;;;;9.18;59.68;99658.22;4397316;32;20155;-87
2022/12/06 11:24:11;;;;;;;4.22;1.10;;;;;;;8.86;59.67;99661.69;4407962;32;20124;-87
2022/12/06 11:26:43;;;;;;;5.90;0.95;;;;;;;8.61;59.65;99670.12;4398933;32;20457;-87
2022/12/06 11:29:10;;;;;;;1.70;1.00;;;;;;;8.65;59.65;99657.06;4397551;32;20132;-88
2022/12/06 11:31:39;;;;;;;1.17;0.73;;;;;;;8.71;59.66;99652.56;4384798;32;20128;-88
2022/12/06 11:34:08;;;;;;;1.73;1.00;;;;;;;8.76;59.67;99661.09;4385323;32;20459;-87
2022/12/06 11:36:34;;;;;;;1.15;0.70;;;;;;;8.63;59.66;99656.25;4385763;32;20097;-87
2022/12/06 11:38:59;;;;;;;1.45;0.90;;;;;;;8.55;59.65;99654.72;4412569;32;20394;-88
2022/12/06 11:41:30;;;;;;;1.20;0.90;;;;;;;8.73;59.66;99648.19;4386965;32;20132;-88
2022/12/06 11:43:56;;;;;;;0.90;0.70;;;;;;;8.86;59.67;99653.91;4393331;32;20140;-87
2022/12/06 11:46:21;;;;;;;1.27;0.70;;;;;;;8.76;59.67;99642.94;4399034;32;20156;-87
2022/12/06 11:48:47;;;;;;;1.45;0.60;;;;;;;8.81;59.66;99646.25;4399538;32;20684;-89
2022/12/06 11:51:23;;;;;;;1.58;1.00;;;;;;;8.82;59.67;99645.38;4420488;32;20177;-86
2022/12/06 11:54:15;;;;;;;0.70;0.60;;;;;;;8.97;59.68;99646.69;4410242;32;21009;-85
2022/12/06 11:56:40;;;;;;;1.00;0.70;;;;;;;8.92;59.68;99643.34;4421127;32;20093;-87
2022/12/06 11:59:23;;;;;;;1.15;0.60;;;;;;;9.08;59.68;99647.25;4408798;32;20110;-87
2022/12/06 12:01:50;;;;;;;1.37;1.10;;;;;;;9.20;59.69;99652.09;4408076;32;20167;-87
2022/12/06 12:04:35;;;;;;;1.12;0.70;;;;;;;8.98;59.68;99650.13;4409075;32;20120;-87
2022/12/06 12:07:17;;;;;;;2.03;0.80;;;;;;;8.90;59.67;99653.78;4420814;32;20150;-87